Time;durP1;ratioP1;P1;durP2;ratioP2;P2;SDS_P1;SDS_P2;PMS_P1;PMS_P2;Temp;Humidity;BMP_temperature;BMP_pressure;BME280_temperature;BME280_humidity;BME280_pressure;Samples;Min_cycle;Max_cycle;Signal;HPM_P1;HPM_P2
2020/12/28 00:00:07;;;;;;;32.95;9.32;;;;;;;-0.80;72.85;93360.75;5052401;28;20040;-66
2020/12/28 00:02:33;;;;;;;28.52;8.50;;;;;;;-0.77;72.79;93358.56;5052682;28;20052;-66
2020/12/28 00:05:00;;;;;;;24.33;7.97;;;;;;;-0.74;72.78;93364.03;5052664;28;20079;-66
2020/12/28 00:07:27;;;;;;;36.78;8.15;;;;;;;-0.70;72.81;93356.94;5051986;28;20045;-66
2020/12/28 00:09:53;;;;;;;41.95;8.63;;;;;;;-0.64;72.35;93363.69;5052589;28;20052;-66
2020/12/28 00:12:19;;;;;;;43.88;8.55;;;;;;;-0.62;72.31;93360.69;5052041;28;20132;-66
2020/12/28 00:14:45;;;;;;;44.75;9.35;;;;;;;-0.59;72.38;93363.50;5052137;28;20087;-66
2020/12/28 00:17:11;;;;;;;39.25;9.40;;;;;;;-0.56;72.34;93359.41;5051775;28;20048;-66
2020/12/28 00:19:37;;;;;;;40.08;9.15;;;;;;;-0.53;72.14;93353.41;5052303;28;20524;-67
2020/12/28 00:22:03;;;;;;;39.92;8.45;;;;;;;-0.52;72.03;93352.31;5051627;28;20068;-66
2020/12/28 00:24:30;;;;;;;41.58;8.82;;;;;;;-0.48;71.96;93345.22;5052204;28;20064;-67
2020/12/28 00:26:56;;;;;;;37.95;8.48;;;;;;;-0.48;71.70;93361.25;5052051;28;20492;-66
2020/12/28 00:29:22;;;;;;;44.65;9.10;;;;;;;-0.49;71.69;93350.88;5051663;28;20077;-66
2020/12/28 00:31:48;;;;;;;38.20;9.02;;;;;;;-0.56;71.55;93360.19;5051927;28;20560;-65
2020/12/28 00:34:14;;;;;;;39.45;9.10;;;;;;;-0.54;72.24;93359.88;5051403;28;20068;-66
2020/12/28 00:36:40;;;;;;;47.95;9.32;;;;;;;-0.75;73.63;93353.66;5052012;28;20056;-66
2020/12/28 00:39:07;;;;;;;32.78;8.38;;;;;;;-0.81;73.83;93348.50;5051439;28;20037;-66
2020/12/28 00:41:33;;;;;;;40.72;8.85;;;;;;;-0.82;73.85;93340.81;5051789;28;20547;-66
2020/12/28 00:43:59;;;;;;;57.78;8.80;;;;;;;-0.84;73.66;93334.97;5051381;28;20408;-66
2020/12/28 00:46:26;;;;;;;43.65;8.20;;;;;;;-0.81;73.61;93343.16;5051392;28;20049;-66
2020/12/28 00:48:51;;;;;;;40.35;10.00;;;;;;;-0.74;73.42;93320.50;5051769;28;20044;-66
2020/12/28 00:51:18;;;;;;;33.03;8.70;;;;;;;-0.70;73.02;93321.44;5051344;28;20056;-66
2020/12/28 00:53:44;;;;;;;36.30;8.73;;;;;;;-0.67;72.91;93305.53;5051652;28;20049;-66
2020/12/28 00:56:12;;;;;;;40.28;8.23;;;;;;;-0.61;72.93;93300.81;5051218;28;20045;-66
2020/12/28 00:58:39;;;;;;;46.22;8.02;;;;;;;-0.64;73.22;93298.75;5051406;28;20060;-66
2020/12/28 01:01:06;;;;;;;28.27;8.80;;;;;;;-0.62;73.30;93310.72;5051129;28;20083;-66
2020/12/28 01:03:32;;;;;;;37.20;8.70;;;;;;;-0.58;73.24;93303.59;5051294;28;20041;-66
2020/12/28 01:05:58;;;;;;;41.92;9.10;;;;;;;-0.53;73.11;93305.31;5051402;28;20045;-66
2020/12/28 01:08:24;;;;;;;47.97;9.32;;;;;;;-0.51;73.00;93296.97;5050899;28;20055;-66
2020/12/28 01:10:50;;;;;;;31.88;8.55;;;;;;;-0.50;72.87;93303.88;5051428;28;20052;-66
2020/12/28 01:13:17;;;;;;;36.80;8.48;;;;;;;-0.47;72.76;93303.22;5050808;28;20045;-65
2020/12/28 01:15:44;;;;;;;39.47;8.85;;;;;;;-0.45;72.65;93307.16;5051035;28;20041;-66
2020/12/28 01:18:10;;;;;;;42.50;9.77;;;;;;;-0.42;72.72;93311.84;5050590;28;20500;-66
2020/12/28 01:20:38;;;;;;;43.35;8.63;;;;;;;-0.40;72.52;93306.97;5051336;28;20094;-66
2020/12/28 01:23:04;;;;;;;34.55;8.93;;;;;;;-0.41;72.43;93312.66;5050676;28;20045;-66
2020/12/28 01:25:30;;;;;;;32.00;8.82;;;;;;;-0.39;72.36;93305.09;5051111;28;20064;-66
2020/12/28 01:27:56;;;;;;;28.10;8.40;;;;;;;-0.35;72.23;93311.34;5050815;28;20506;-66
2020/12/28 01:30:22;;;;;;;26.40;8.82;;;;;;;-0.36;72.35;93297.22;5050524;28;20063;-66
2020/12/28 01:32:49;;;;;;;37.70;9.13;;;;;;;-0.36;72.24;93299.88;5050805;28;20037;-66
2020/12/28 01:35:15;;;;;;;45.15;9.55;;;;;;;-0.35;72.12;93300.66;5050514;28;20041;-66
2020/12/28 01:37:41;;;;;;;37.40;8.63;;;;;;;-0.31;71.99;93297.03;5050836;28;20041;-66
2020/12/28 01:40:07;;;;;;;34.45;8.38;;;;;;;-0.29;71.90;93294.78;5050535;28;20044;-67
2020/12/28 01:42:33;;;;;;;39.88;8.70;;;;;;;-0.29;71.80;93294.78;5050383;28;20052;-66
2020/12/28 01:44:59;;;;;;;31.10;7.80;;;;;;;-0.31;71.71;93286.31;5046498;28;20073;-66
2020/12/28 01:47:26;;;;;;;50.15;8.73;;;;;;;-0.30;71.93;93287.09;5050290;28;20546;-66
2020/12/28 01:49:53;;;;;;;40.03;8.55;;;;;;;-0.28;71.92;93285.66;5050851;28;20033;-66
2020/12/28 01:52:19;;;;;;;43.17;8.95;;;;;;;-0.30;71.88;93277.19;5050529;28;20045;-66
2020/12/28 01:54:45;;;;;;;24.88;8.00;;;;;;;-0.29;71.97;93283.31;5050827;28;20045;-66
2020/12/28 01:57:11;;;;;;;29.23;8.05;;;;;;;-0.28;72.08;93279.53;5050388;28;20123;-66
2020/12/28 01:59:40;;;;;;;42.30;8.40;;;;;;;-0.28;72.27;93266.94;5050857;28;20044;-66
2020/12/28 02:02:09;;;;;;;30.65;8.02;;;;;;;-0.27;72.29;93246.34;5050356;28;20041;-66
2020/12/28 02:04:36;;;;;;;39.30;8.50;;;;;;;-0.28;71.95;93266.94;5050714;28;20048;-66
2020/12/28 02:07:06;;;;;;;42.45;9.02;;;;;;;-0.35;72.24;93284.63;5050253;28;20045;-67
2020/12/28 02:09:32;;;;;;;42.38;10.50;;;;;;;-0.67;73.16;93283.38;5050733;28;20127;-66
2020/12/28 02:11:58;;;;;;;34.55;8.95;;;;;;;-0.74;73.74;93285.75;5050677;28;20099;-66
2020/12/28 02:14:24;;;;;;;35.83;8.82;;;;;;;-0.72;73.97;93296.94;5049264;28;20044;-66
2020/12/28 02:16:50;;;;;;;46.17;8.82;;;;;;;-0.72;73.99;93291.59;5050590;28;20118;-66
2020/12/28 02:19:16;;;;;;;37.28;8.82;;;;;;;-0.75;74.26;93294.88;5049978;28;20063;-66
2020/12/28 02:21:43;;;;;;;44.78;8.93;;;;;;;-0.72;74.42;93288.91;5050442;28;20045;-66
2020/12/28 02:24:09;;;;;;;46.38;9.43;;;;;;;-0.70;74.30;93287.47;5050066;28;20060;-66
2020/12/28 02:26:35;;;;;;;35.22;8.82;;;;;;;-0.67;74.44;93267.34;5050663;28;20108;-66
2020/12/28 02:29:01;;;;;;;35.35;9.40;;;;;;;-0.62;74.46;93259.16;5050518;28;20047;-66
2020/12/28 02:31:27;;;;;;;35.58;9.35;;;;;;;-0.67;74.61;93235.28;5050203;28;20086;-66
2020/12/28 02:33:53;;;;;;;31.25;8.38;;;;;;;-0.65;74.48;93238.41;5050361;28;20041;-66
2020/12/28 02:36:19;;;;;;;38.28;8.60;;;;;;;-0.64;74.19;93245.31;5049995;28;20045;-66
2020/12/28 02:38:45;;;;;;;38.78;9.13;;;;;;;-0.65;74.27;93249.09;5050287;28;20127;-66
2020/12/28 02:41:11;;;;;;;39.10;8.52;;;;;;;-0.64;74.16;93246.09;5049879;28;20531;-67
2020/12/28 02:43:37;;;;;;;56.55;9.73;;;;;;;-0.62;74.23;93259.16;5049628;28;20052;-66
2020/12/28 02:46:03;;;;;;;31.63;8.15;;;;;;;-0.59;74.36;93258.50;5049883;28;20041;-66
2020/12/28 02:48:29;;;;;;;45.92;9.50;;;;;;;-0.56;74.11;93257.84;5050096;28;20385;-66
2020/12/28 02:50:55;;;;;;;33.72;8.55;;;;;;;-0.55;74.23;93254.06;5050337;28;20052;-66
2020/12/28 02:53:21;;;;;;;33.30;7.95;;;;;;;-0.55;74.07;93244.16;5050639;28;20060;-66
2020/12/28 02:55:48;;;;;;;39.30;8.95;;;;;;;-0.52;74.02;93232.06;5053954;28;20048;-66
2020/12/28 02:58:14;;;;;;;33.53;8.32;;;;;;;-0.51;73.90;93233.63;5053227;28;20053;-66
2020/12/28 03:00:40;;;;;;;44.45;9.15;;;;;;;-0.50;73.67;93232.50;5053869;28;20103;-66
2020/12/28 03:03:06;;;;;;;44.90;9.25;;;;;;;-0.58;73.76;93217.28;5053268;28;20101;-66
2020/12/28 03:05:32;;;;;;;35.58;8.20;;;;;;;-0.65;74.48;93206.34;5053871;28;20049;-66
2020/12/28 03:07:58;;;;;;;42.90;10.13;;;;;;;-0.66;74.09;93204.78;5053659;28;20450;-66
2020/12/28 03:10:23;;;;;;;36.20;8.52;;;;;;;-0.68;74.03;93205.13;5053128;28;20502;-66
2020/12/28 03:12:50;;;;;;;37.15;9.23;;;;;;;-0.73;74.09;93212.50;5053464;28;20076;-66
2020/12/28 03:15:16;;;;;;;35.38;8.90;;;;;;;-0.73;74.38;93212.50;5052483;28;20111;-66
2020/12/28 03:17:42;;;;;;;47.60;9.02;;;;;;;-0.72;74.43;93216.78;5053337;28;20512;-66
2020/12/28 03:20:08;;;;;;;27.60;8.68;;;;;;;-0.72;74.64;93208.75;5053126;28;20516;-66
2020/12/28 03:22:34;;;;;;;28.77;8.70;;;;;;;-0.71;74.75;93221.00;5053493;28;20061;-66
2020/12/28 03:25:00;;;;;;;36.55;8.82;;;;;;;-0.68;74.82;93215.00;5053332;28;20152;-66
2020/12/28 03:27:26;;;;;;;26.60;8.95;;;;;;;-0.65;74.85;93214.34;5053164;28;20049;-66
2020/12/28 03:29:53;;;;;;;33.75;8.82;;;;;;;-0.65;74.88;93212.47;5053223;28;20133;-65
2020/12/28 03:32:19;;;;;;;45.53;9.60;;;;;;;-0.62;74.93;93216.41;5052454;28;20085;-66
2020/12/28 03:34:45;;;;;;;41.08;9.10;;;;;;;-0.58;74.89;93223.41;5053270;28;20458;-66
2020/12/28 03:37:11;;;;;;;35.90;9.75;;;;;;;-0.56;74.87;93223.91;5052651;28;20079;-66
2020/12/28 03:39:37;;;;;;;40.20;9.35;;;;;;;-0.53;74.93;93212.53;5053036;28;20124;-66
2020/12/28 03:42:02;;;;;;;44.22;9.27;;;;;;;-0.48;74.93;93208.13;5052705;28;20111;-66
2020/12/28 03:44:28;;;;;;;39.72;9.25;;;;;;;-0.44;74.79;93195.66;5052267;28;20530;-66
2020/12/28 03:46:55;;;;;;;34.35;9.10;;;;;;;-0.41;74.73;93197.69;5052997;28;20044;-65
2020/12/28 03:49:21;;;;;;;42.20;9.00;;;;;;;-0.41;74.63;93201.16;5052447;28;20061;-66
2020/12/28 03:51:47;;;;;;;39.72;9.00;;;;;;;-0.41;74.56;93179.78;5052985;28;20565;-66
2020/12/28 03:54:13;;;;;;;33.63;8.60;;;;;;;-0.41;74.48;93174.41;5052367;28;20511;-66
2020/12/28 03:56:39;;;;;;;42.85;9.15;;;;;;;-0.36;74.46;93176.91;5052670;28;20106;-66
2020/12/28 03:59:05;;;;;;;40.33;8.55;;;;;;;-0.36;74.36;93166.22;5052429;28;20040;-66
2020/12/28 04:01:31;;;;;;;48.92;9.35;;;;;;;-0.42;74.60;93156.78;5052747;28;20519;-66
2020/12/28 04:03:58;;;;;;;30.10;8.43;;;;;;;-0.43;75.03;93152.56;5052393;28;20059;-66
2020/12/28 04:06:24;;;;;;;30.17;7.75;;;;;;;-0.38;74.67;93157.72;5052227;28;20045;-66
2020/12/28 04:08:50;;;;;;;23.58;7.82;;;;;;;-0.34;74.33;93163.97;5052555;28;20496;-67
2020/12/28 04:11:16;;;;;;;32.35;7.97;;;;;;;-0.34;74.23;93174.66;5052073;28;20115;-66
2020/12/28 04:13:42;;;;;;;46.97;8.65;;;;;;;-0.38;73.99;93170.31;5051780;28;20047;-66
2020/12/28 04:16:08;;;;;;;45.85;9.10;;;;;;;-0.39;74.24;93160.72;5052020;28;20044;-66
2020/12/28 04:18:34;;;;;;;48.08;9.15;;;;;;;-0.35;74.17;93172.34;5052291;28;20045;-65
2020/12/28 04:21:01;;;;;;;33.67;8.07;;;;;;;-0.34;73.55;93181.91;5052391;28;20425;-65
2020/12/28 04:23:27;;;;;;;46.20;9.05;;;;;;;-0.43;73.56;93187.31;5052040;28;20036;-65
2020/12/28 04:25:53;;;;;;;34.72;8.23;;;;;;;-0.44;73.77;93183.09;5052206;28;20078;-66
2020/12/28 04:28:19;;;;;;;35.58;8.25;;;;;;;-0.40;73.66;93175.19;5051866;28;20059;-66
2020/12/28 04:30:44;;;;;;;36.30;8.35;;;;;;;-0.38;73.79;93163.06;5052099;28;20087;-65
2020/12/28 04:33:10;;;;;;;38.30;8.48;;;;;;;-0.35;73.65;93170.44;5051556;28;20416;-65
2020/12/28 04:35:36;;;;;;;39.85;8.55;;;;;;;-0.35;73.72;93170.44;5052226;28;20459;-65
2020/12/28 04:38:03;;;;;;;30.15;8.15;;;;;;;-0.35;73.76;93156.28;5051427;28;20041;-65
2020/12/28 04:40:29;;;;;;;36.47;8.38;;;;;;;-0.34;73.82;93153.28;5051798;28;20044;-65
2020/12/28 04:42:56;;;;;;;30.27;8.27;;;;;;;-0.34;73.89;93150.59;5051754;28;20705;-65
2020/12/28 04:45:22;;;;;;;31.95;8.60;;;;;;;-0.31;74.01;93149.97;5050908;28;20052;-66
2020/12/28 04:47:49;;;;;;;38.88;8.00;;;;;;;-0.28;73.92;93141.28;5051863;28;20135;-65
2020/12/28 04:50:15;;;;;;;30.60;8.00;;;;;;;-0.24;73.88;93133.38;5051290;28;20044;-66
2020/12/28 04:52:41;;;;;;;42.40;9.10;;;;;;;-0.19;73.72;93132.41;5051526;28;20045;-65
2020/12/28 04:55:08;;;;;;;32.42;8.07;;;;;;;-0.18;73.62;93123.25;5051017;28;20488;-65
2020/12/28 04:57:34;;;;;;;48.20;8.60;;;;;;;-0.19;73.53;93119.03;5051479;28;20099;-65
2020/12/28 05:00:00;;;;;;;43.50;8.48;;;;;;;-0.17;73.32;93116.81;5051595;28;20045;-65
2020/12/28 05:02:26;;;;;;;42.65;8.23;;;;;;;-0.16;73.33;93115.69;5051401;28;20125;-65
2020/12/28 05:04:52;;;;;;;36.85;7.75;;;;;;;-0.18;73.04;93113.34;5051541;28;20519;-66
2020/12/28 05:07:18;;;;;;;35.13;7.55;;;;;;;-0.15;73.03;93117.28;5050989;28;20401;-66
2020/12/28 05:09:44;;;;;;;36.70;10.25;;;;;;;-0.13;72.97;93120.38;5051443;28;20072;-66
2020/12/28 05:12:11;;;;;;;35.58;8.05;;;;;;;-0.12;73.01;93127.28;5050868;28;20554;-65
2020/12/28 05:14:37;;;;;;;46.17;8.05;;;;;;;-0.13;72.54;93131.09;5050737;28;20048;-65
2020/12/28 05:17:05;;;;;;;28.95;7.28;;;;;;;-0.10;72.48;93125.88;5050206;28;20107;-66
2020/12/28 05:19:33;;;;;;;28.77;7.43;;;;;;;-0.05;72.35;93128.34;5051322;28;20103;-65
2020/12/28 05:21:59;;;;;;;36.72;7.82;;;;;;;0.02;72.31;93124.34;5051230;28;20142;-66
2020/12/28 05:24:26;;;;;;;32.67;7.20;;;;;;;0.06;72.20;93127.91;5050737;28;20045;-66
2020/12/28 05:26:51;;;;;;;30.38;6.85;;;;;;;0.05;72.30;93124.44;5051123;28;20037;-65
2020/12/28 05:29:20;;;;;;;40.78;7.22;;;;;;;0.04;72.10;93135.47;5050778;28;20099;-66
2020/12/28 05:31:48;;;;;;;32.25;7.75;;;;;;;0.07;72.03;93140.97;5050954;28;20076;-66
2020/12/28 05:34:16;;;;;;;32.22;7.45;;;;;;;0.09;72.01;93138.72;5050600;28;20044;-66
2020/12/28 05:36:46;;;;;;;42.53;8.43;;;;;;;0.09;72.14;93136.03;5050997;28;20132;-66
2020/12/28 05:39:15;;;;;;;37.80;8.02;;;;;;;0.10;72.13;93123.44;5050555;28;20048;-66
2020/12/28 05:41:52;;;;;;;53.22;8.50;;;;;;;0.09;72.27;93117.31;5051048;28;20041;-66
2020/12/28 05:44:19;;;;;;;30.98;6.85;;;;;;;0.13;72.31;93120.13;5049938;28;20500;-66
2020/12/28 05:46:49;;;;;;;37.22;8.00;;;;;;;0.17;71.89;93129.06;5051049;28;20045;-66
2020/12/28 05:49:20;;;;;;;41.60;8.02;;;;;;;0.18;72.02;93125.25;5050621;28;20504;-66
2020/12/28 05:51:49;;;;;;;50.30;7.75;;;;;;;0.14;72.19;93135.84;5050969;28;20102;-66
2020/12/28 05:54:17;;;;;;;29.50;7.18;;;;;;;0.12;72.48;93124.69;5050532;28;20439;-66
2020/12/28 05:56:43;;;;;;;31.05;8.00;;;;;;;0.16;72.37;93111.44;5050664;28;20685;-66
2020/12/28 05:59:12;;;;;;;26.83;7.82;;;;;;;0.19;72.38;93105.41;5050415;28;20052;-66
2020/12/28 06:01:43;;;;;;;54.95;8.68;;;;;;;0.17;72.17;93102.31;5050507;28;20550;-66
2020/12/28 06:04:13;;;;;;;23.98;7.47;;;;;;;0.15;72.24;93099.94;5050368;28;20135;-66
2020/12/28 06:06:39;;;;;;;40.95;7.60;;;;;;;0.14;72.16;93093.03;5050836;28;20619;-66
2020/12/28 06:09:05;;;;;;;31.00;7.07;;;;;;;0.10;72.16;93091.34;5050262;28;20523;-66
2020/12/28 06:11:31;;;;;;;44.80;8.00;;;;;;;0.07;72.22;93081.31;5050653;28;20524;-66
2020/12/28 06:13:58;;;;;;;35.05;7.68;;;;;;;0.03;72.52;93081.19;5050147;28;20104;-66
2020/12/28 06:16:24;;;;;;;30.15;7.28;;;;;;;0.06;72.54;93085.91;5050258;28;20052;-66
2020/12/28 06:18:55;;;;;;;36.78;7.68;;;;;;;0.04;72.35;93093.44;5050463;28;20041;-66
2020/12/28 06:21:21;;;;;;;37.75;7.10;;;;;;;0.03;72.18;93094.56;5050107;28;20377;-66
2020/12/28 06:23:51;;;;;;;43.70;7.75;;;;;;;0.06;72.13;93101.16;5050504;28;20444;-66
2020/12/28 06:26:20;;;;;;;29.73;6.53;;;;;;;0.07;72.26;93103.50;5050093;28;20056;-66
2020/12/28 06:28:46;;;;;;;35.95;7.03;;;;;;;0.02;72.01;93125.13;5053447;28;20049;-66
2020/12/28 06:31:12;;;;;;;40.03;7.15;;;;;;;-0.01;72.51;93139.13;5053869;28;20102;-66
2020/12/28 06:33:48;;;;;;;40.60;8.00;;;;;;;-0.15;73.70;93186.81;5054107;28;20055;-66
2020/12/28 06:36:16;;;;;;;40.05;8.55;;;;;;;-0.57;75.71;93218.88;5053891;28;20527;-66
2020/12/28 06:38:43;;;;;;;46.78;8.45;;;;;;;-0.77;76.29;93206.28;5053973;28;20037;-66
2020/12/28 06:41:09;;;;;;;35.28;8.40;;;;;;;-0.67;76.70;93192.53;5053754;28;20538;-66
2020/12/28 06:43:39;;;;;;;55.78;8.70;;;;;;;-0.59;76.48;93210.38;5053513;28;20060;-66
2020/12/28 06:46:05;;;;;;;39.33;8.43;;;;;;;-0.63;76.33;93182.75;5053578;28;20060;-66
2020/12/28 06:48:31;;;;;;;47.70;8.48;;;;;;;-0.55;76.49;93173.88;5054001;28;20041;-66
2020/12/28 06:51:06;;;;;;;29.30;8.32;;;;;;;-0.54;76.04;93175.44;5054048;28;20045;-66
2020/12/28 06:53:33;;;;;;;39.95;8.60;;;;;;;-0.48;75.95;93147.41;5053864;28;20048;-65
2020/12/28 06:56:06;;;;;;;34.97;8.65;;;;;;;-0.45;75.67;93141.44;5053928;28;20037;-66
2020/12/28 06:58:32;;;;;;;32.72;8.43;;;;;;;-0.36;75.53;93150.16;5053713;28;20040;-66
2020/12/28 07:00:58;;;;;;;40.10;8.23;;;;;;;-0.34;74.80;93129.22;5053877;28;20063;-66
2020/12/28 07:03:25;;;;;;;35.65;8.90;;;;;;;-0.27;74.81;93118.75;5053297;28;20052;-66
2020/12/28 07:05:58;;;;;;;38.15;7.95;;;;;;;-0.25;74.80;93101.63;5053746;28;20049;-66
2020/12/28 07:08:24;;;;;;;;;;;;;;;-0.27;74.96;93094.69;5053644;28;20425;-65
2020/12/28 07:10:57;;;;;;;25.52;8.15;;;;;;;-0.25;74.76;93101.63;5053684;28;19951;-68
2020/12/28 07:13:23;;;;;;;53.38;8.70;;;;;;;-0.20;74.51;93109.47;5052642;28;20047;-65
2020/12/28 07:15:49;;;;;;;34.75;8.95;;;;;;;-0.16;74.11;93102.31;5053543;28;20049;-65
2020/12/28 07:18:15;;;;;;;47.45;8.98;;;;;;;-0.16;74.08;93095.06;5053024;28;20090;-65
2020/12/28 07:20:41;;;;;;;42.60;8.73;;;;;;;-0.14;73.96;93081.38;5053395;28;20045;-65
2020/12/28 07:23:07;;;;;;;36.25;8.93;;;;;;;-0.10;73.82;93080.41;5052811;28;20045;-66
2020/12/28 07:25:33;;;;;;;40.40;9.40;;;;;;;-0.08;74.01;93069.38;5053469;28;20045;-67
2020/12/28 07:28:00;;;;;;;32.13;8.88;;;;;;;-0.02;73.61;93076.84;5053428;28;20446;-66
2020/12/28 07:30:26;;;;;;;37.90;11.40;;;;;;;0.02;73.60;93074.28;5053134;28;20037;-67
2020/12/28 07:32:56;;;;;;;39.88;9.38;;;;;;;0.04;73.49;93092.69;5053000;28;20033;-67
2020/12/28 07:35:22;;;;;;;33.22;8.95;;;;;;;0.08;73.46;93082.88;5052745;28;20041;-65
2020/12/28 07:37:49;;;;;;;42.22;9.32;;;;;;;0.07;73.02;93082.09;5052962;28;20056;-65
2020/12/28 07:40:15;;;;;;;42.63;10.15;;;;;;;0.04;73.10;93077.41;5051916;28;20049;-65
2020/12/28 07:42:41;;;;;;;39.90;8.75;;;;;;;0.07;72.97;93076.75;5053154;28;20037;-65
2020/12/28 07:45:11;;;;;;;36.53;8.20;;;;;;;0.09;72.87;93069.16;5051970;28;20041;-66
2020/12/28 07:47:42;;;;;;;37.60;9.02;;;;;;;0.13;72.79;93070.06;5052913;28;20489;-68
2020/12/28 07:50:09;;;;;;;23.40;8.15;;;;;;;0.16;72.72;93057.94;5052507;28;20120;-66
2020/12/28 07:52:43;;;;;;;48.13;9.68;;;;;;;0.22;72.69;93049.34;5052808;28;20111;-67
2020/12/28 07:55:17;;;;;;;40.70;10.25;;;;;;;0.27;72.35;93042.22;5052456;28;20080;-68
2020/12/28 07:57:56;;;;;;;52.33;11.48;;;;;;;0.29;72.52;93034.63;5052783;28;20133;-67
2020/12/28 08:00:28;;;;;;;47.08;11.95;;;;;;;0.34;72.53;93021.03;5052309;28;20056;-67
2020/12/28 08:03:13;;;;;;;43.72;11.50;;;;;;;0.27;72.53;93020.81;5052670;28;20044;-67
2020/12/28 08:05:39;;;;;;;42.53;10.93;;;;;;;0.25;73.34;93019.22;5052564;28;20037;-67
2020/12/28 08:08:05;;;;;;;46.47;10.77;;;;;;;0.20;73.19;93018.66;5052092;28;20056;-67
2020/12/28 08:10:31;;;;;;;36.97;10.70;;;;;;;0.16;74.08;93025.81;5052594;28;20124;-67
2020/12/28 08:12:59;;;;;;;39.60;8.85;;;;;;;0.14;74.13;93022.69;5052658;28;20492;-67
2020/12/28 08:15:29;;;;;;;37.92;9.05;;;;;;;0.15;73.78;93019.66;5051422;28;20500;-67
2020/12/28 08:18:06;;;;;;;31.48;7.35;;;;;;;0.12;73.77;93025.72;5052224;28;20052;-65
2020/12/28 08:20:32;;;;;;;43.08;9.38;;;;;;;0.17;74.28;93022.81;5052034;28;20397;-66
2020/12/28 08:22:58;;;;;;;51.15;11.50;;;;;;;0.16;74.27;93005.19;5052051;28;20049;-67
2020/12/28 08:25:27;;;;;;;39.78;10.30;;;;;;;0.15;74.37;93014.31;5051603;28;20049;-67
2020/12/28 08:27:54;;;;;;;46.33;9.15;;;;;;;0.16;74.25;93015.91;5052005;28;20095;-67
2020/12/28 08:30:20;;;;;;;40.08;10.02;;;;;;;0.18;74.01;93019.00;5051493;28;20060;-68
2020/12/28 08:32:48;;;;;;;49.50;9.60;;;;;;;0.23;74.19;93008.09;5051803;28;20514;-66
2020/12/28 08:35:14;;;;;;;32.65;8.68;;;;;;;0.29;73.94;93000.63;5051504;28;20508;-68
2020/12/28 08:37:46;;;;;;;41.72;8.82;;;;;;;0.32;73.58;92991.16;5051600;28;20060;-67
2020/12/28 08:40:14;;;;;;;38.45;9.32;;;;;;;0.36;73.71;92987.44;5051350;28;20068;-65
2020/12/28 08:42:40;;;;;;;49.10;12.45;;;;;;;0.36;74.06;92995.47;5051755;28;20511;-65
2020/12/28 08:45:05;;;;;;;33.53;9.32;;;;;;;0.35;73.82;92990.47;5050635;28;20087;-66
2020/12/28 08:47:32;;;;;;;38.22;9.05;;;;;;;0.40;73.92;92982.22;5051776;28;20064;-66
2020/12/28 08:49:59;;;;;;;31.65;8.35;;;;;;;0.44;73.64;92999.16;5051623;28;20045;-66
2020/12/28 08:52:25;;;;;;;35.28;8.73;;;;;;;0.45;73.52;92998.03;5050117;28;20103;-66
2020/12/28 08:54:56;;;;;;;52.03;8.82;;;;;;;0.47;73.41;92999.28;5051604;28;20041;-66
2020/12/28 08:57:23;;;;;;;33.95;8.15;;;;;;;0.46;73.41;92992.34;5051083;28;20037;-66
2020/12/28 08:59:49;;;;;;;35.92;9.02;;;;;;;0.44;73.13;92994.59;5051602;28;20041;-66
2020/12/28 09:02:16;;;;;;;37.55;8.65;;;;;;;0.52;73.13;92991.03;5051069;28;20045;-66
2020/12/28 09:04:42;;;;;;;54.47;8.73;;;;;;;0.60;73.15;92986.66;5051513;28;20044;-66
2020/12/28 09:07:09;;;;;;;32.88;8.10;;;;;;;0.65;72.93;92975.72;5050923;28;20057;-66
2020/12/28 09:09:35;;;;;;;34.35;8.88;;;;;;;0.71;71.99;92986.97;5051502;28;20048;-65
2020/12/28 09:12:01;;;;;;;36.58;9.55;;;;;;;0.74;72.23;92980.94;5050856;28;20546;-67
2020/12/28 09:14:27;;;;;;;43.28;8.75;;;;;;;0.78;72.31;92982.63;5050481;28;20045;-66
2020/12/28 09:16:53;;;;;;;39.95;8.93;;;;;;;0.76;72.11;92984.81;5051328;28;20068;-66
2020/12/28 09:19:19;;;;;;;30.15;8.68;;;;;;;0.85;72.51;92981.25;5050754;28;20053;-66
2020/12/28 09:21:45;;;;;;;31.35;9.18;;;;;;;0.86;72.56;92966.72;5051031;28;20049;-66
2020/12/28 09:24:12;;;;;;;37.30;9.68;;;;;;;0.90;72.51;92962.25;5050655;28;20056;-66
2020/12/28 09:26:38;;;;;;;44.20;9.98;;;;;;;0.92;72.07;92962.69;5050982;28;20422;-66
2020/12/28 09:29:04;;;;;;;56.75;10.20;;;;;;;0.95;71.88;92970.84;5050696;28;20036;-66
2020/12/28 09:31:30;;;;;;;38.65;9.13;;;;;;;1.00;71.79;92962.56;5050888;28;20432;-66
2020/12/28 09:33:56;;;;;;;33.72;8.05;;;;;;;1.04;71.75;92965.31;5050666;28;20041;-66
2020/12/28 09:36:22;;;;;;;34.08;8.80;;;;;;;1.06;71.53;92965.78;5050439;28;20041;-66
2020/12/28 09:38:48;;;;;;;43.75;8.93;;;;;;;1.10;71.17;92963.19;5050726;28;20043;-66
2020/12/28 09:41:16;;;;;;;37.97;9.27;;;;;;;1.15;70.97;92969.09;5050471;28;20045;-66
2020/12/28 09:43:42;;;;;;;38.55;8.18;;;;;;;1.17;71.24;92966.84;5050316;28;20059;-66
2020/12/28 09:46:09;;;;;;;39.05;7.85;;;;;;;1.18;71.22;92968.41;5050457;28;20107;-66
2020/12/28 09:48:35;;;;;;;42.25;8.18;;;;;;;1.22;71.26;92966.59;5050776;28;20045;-67
2020/12/28 09:51:03;;;;;;;34.05;8.27;;;;;;;1.25;70.84;92957.91;5050505;28;20048;-67
2020/12/28 09:53:29;;;;;;;38.53;7.90;;;;;;;1.27;70.82;92961.00;5050773;28;20052;-66
2020/12/28 09:55:55;;;;;;;35.67;9.15;;;;;;;1.30;71.00;92948.81;5050797;28;20048;-66
2020/12/28 09:58:22;;;;;;;37.78;9.52;;;;;;;1.33;71.64;92947.34;5050291;28;20053;-66
2020/12/28 10:00:48;;;;;;;36.75;8.65;;;;;;;1.33;71.53;92952.72;5050775;28;20412;-66
2020/12/28 10:03:14;;;;;;;38.83;8.50;;;;;;;1.34;71.25;92948.91;5052608;28;20496;-66
2020/12/28 10:05:40;;;;;;;38.10;8.32;;;;;;;1.39;71.07;92949.44;5054741;28;20037;-66
2020/12/28 10:08:06;;;;;;;45.83;8.35;;;;;;;1.45;70.83;92944.59;5054243;28;20037;-67
2020/12/28 10:10:32;;;;;;;47.53;7.82;;;;;;;1.49;70.30;92940.13;5054613;28;20068;-65
2020/12/28 10:12:58;;;;;;;40.00;8.90;;;;;;;1.49;70.36;92945.47;5054655;28;20065;-65
2020/12/28 10:15:24;;;;;;;36.88;8.05;;;;;;;1.46;70.33;92940.78;5053744;28;20415;-66
2020/12/28 10:18:23;;;;;;;33.25;7.90;;;;;;;1.50;70.60;92942.44;5054508;28;20041;-66
2020/12/28 10:20:50;;;;;;;37.53;8.63;;;;;;;1.55;70.68;92941.41;5044163;28;20069;-66
2020/12/28 10:23:16;;;;;;;44.33;9.07;;;;;;;1.58;70.89;92938.06;5053971;28;20504;-66
2020/12/28 10:25:42;;;;;;;39.25;9.20;;;;;;;1.61;71.00;92931.22;5054517;28;20075;-66
2020/12/28 10:28:08;;;;;;;38.92;9.30;;;;;;;1.62;70.79;92928.19;5053819;28;20491;-66
2020/12/28 10:30:35;;;;;;;41.05;9.13;;;;;;;1.65;70.55;92921.34;5036680;28;20106;-66
2020/12/28 10:33:01;;;;;;;47.35;10.30;;;;;;;1.62;70.62;92922.84;5053784;28;20041;-69
2020/12/28 10:35:26;;;;;;;43.38;9.80;;;;;;;1.59;70.78;92923.53;5054321;28;20441;-66
2020/12/28 10:37:55;;;;;;;45.50;9.43;;;;;;;1.60;70.91;92911.66;5054107;28;20045;-66
2020/12/28 10:40:21;;;;;;;42.83;10.27;;;;;;;1.59;71.36;92918.16;5053712;28;20060;-66
2020/12/28 10:42:46;;;;;;;38.65;8.73;;;;;;;1.62;71.69;92905.94;5054189;28;20049;-66
2020/12/28 10:45:13;;;;;;;48.65;9.93;;;;;;;1.61;71.78;92894.44;5053012;28;20041;-66
2020/12/28 10:47:39;;;;;;;48.47;10.13;;;;;;;1.64;71.72;92893.75;5054116;28;20048;-66
2020/12/28 10:50:06;;;;;;;27.77;8.98;;;;;;;1.68;71.65;92889.28;5053688;28;20071;-66
2020/12/28 10:52:32;;;;;;;44.38;10.02;;;;;;;1.69;71.68;92880.09;5054093;28;20126;-66
2020/12/28 10:54:58;;;;;;;41.63;10.93;;;;;;;1.71;71.39;92877.84;5054116;28;20484;-66
2020/12/28 10:57:24;;;;;;;48.72;14.23;;;;;;;1.69;71.53;92872.03;5053420;28;20053;-66
2020/12/28 10:59:50;;;;;;;51.20;13.98;;;;;;;1.68;71.78;92873.19;5053803;28;20048;-66
2020/12/28 11:02:16;;;;;;;38.83;10.18;;;;;;;1.68;71.77;92862.44;5053345;28;20044;-66
2020/12/28 11:04:43;;;;;;;52.33;9.70;;;;;;;1.71;71.82;92856.38;5053784;28;20055;-66
2020/12/28 11:07:09;;;;;;;30.45;8.73;;;;;;;1.73;71.61;92854.16;5053239;28;20755;-67
2020/12/28 11:09:35;;;;;;;23.77;9.15;;;;;;;1.73;71.65;92848.78;5053758;28;20049;-66
2020/12/28 11:12:01;;;;;;;31.33;8.57;;;;;;;1.75;71.67;92851.88;5053282;28;20126;-67
2020/12/28 11:14:27;;;;;;;33.00;8.27;;;;;;;1.75;71.67;92865.28;5051887;28;20053;-66
2020/12/28 11:16:53;;;;;;;34.58;8.15;;;;;;;1.75;71.68;92862.59;5053509;28;20052;-66
2020/12/28 11:19:19;;;;;;;50.20;8.52;;;;;;;1.78;71.61;92861.94;5052932;28;20049;-66
2020/12/28 11:21:46;;;;;;;45.22;8.77;;;;;;;1.78;71.62;92853.88;5053499;28;20381;-66
2020/12/28 11:24:12;;;;;;;41.63;8.10;;;;;;;1.80;71.03;92859.66;5053042;28;20091;-66
2020/12/28 11:26:38;;;;;;;51.42;8.10;;;;;;;1.82;70.76;92852.03;5053363;28;20049;-66